sensor_id;sensor_type;location;lat;lon;timestamp;temperature;humidity
8824;DHT22;4448;50.904;4.694;2023-03-23T00:01:33;12.80;99.90
8824;DHT22;4448;50.904;4.694;2023-03-23T00:04:02;12.80;99.90
8824;DHT22;4448;50.904;4.694;2023-03-23T00:06:29;12.80;99.90
8824;DHT22;4448;50.904;4.694;2023-03-23T00:08:58;12.80;99.90
8824;DHT22;4448;50.904;4.694;2023-03-23T00:11:29;12.80;99.90
8824;DHT22;4448;50.904;4.694;2023-03-23T00:13:57;12.80;99.90
8824;DHT22;4448;50.904;4.694;2023-03-23T00:16:25;12.80;99.90
8824;DHT22;4448;50.904;4.694;2023-03-23T00:19:02;12.80;99.90
8824;DHT22;4448;50.904;4.694;2023-03-23T00:21:32;12.90;99.90
8824;DHT22;4448;50.904;4.694;2023-03-23T00:26:27;12.90;99.90
8824;DHT22;4448;50.904;4.694;2023-03-23T00:28:55;12.90;99.90
8824;DHT22;4448;50.904;4.694;2023-03-23T00:31:21;12.90;99.90
8824;DHT22;4448;50.904;4.694;2023-03-23T00:33:46;12.90;99.90
8824;DHT22;4448;50.904;4.694;2023-03-23T00:36:13;12.90;99.90
8824;DHT22;4448;50.904;4.694;2023-03-23T00:38:39;12.90;99.90
8824;DHT22;4448;50.904;4.694;2023-03-23T00:41:07;12.90;99.90
8824;DHT22;4448;50.904;4.694;2023-03-23T00:43:33;12.90;99.90
8824;DHT22;4448;50.904;4.694;2023-03-23T00:46:03;12.90;99.90
8824;DHT22;4448;50.904;4.694;2023-03-23T00:48:34;12.90;99.90
8824;DHT22;4448;50.904;4.694;2023-03-23T00:51:02;12.90;99.90
8824;DHT22;4448;50.904;4.694;2023-03-23T00:53:32;12.90;99.90
8824;DHT22;4448;50.904;4.694;2023-03-23T00:55:58;12.90;99.90
8824;DHT22;4448;50.904;4.694;2023-03-23T00:58:24;12.90;99.90
8824;DHT22;4448;50.904;4.694;2023-03-23T01:00:50;12.90;99.90
8824;DHT22;4448;50.904;4.694;2023-03-23T01:03:16;12.90;99.90
8824;DHT22;4448;50.904;4.694;2023-03-23T01:05:44;12.90;99.90
8824;DHT22;4448;50.904;4.694;2023-03-23T01:08:13;12.90;99.90
8824;DHT22;4448;50.904;4.694;2023-03-23T01:10:39;12.90;99.90
8824;DHT22;4448;50.904;4.694;2023-03-23T01:13:07;12.90;99.90
8824;DHT22;4448;50.904;4.694;2023-03-23T01:15:33;12.90;99.90
8824;DHT22;4448;50.904;4.694;2023-03-23T01:17:58;12.90;99.90
8824;DHT22;4448;50.904;4.694;2023-03-23T01:20:25;12.90;99.90
8824;DHT22;4448;50.904;4.694;2023-03-23T01:22:52;12.90;99.90
8824;DHT22;4448;50.904;4.694;2023-03-23T01:25:19;12.90;99.90
8824;DHT22;4448;50.904;4.694;2023-03-23T01:27:45;12.90;99.90
8824;DHT22;4448;50.904;4.694;2023-03-23T01:30:12;12.90;99.90
8824;DHT22;4448;50.904;4.694;2023-03-23T01:32:38;12.90;99.90
8824;DHT22;4448;50.904;4.694;2023-03-23T01:35:04;12.90;99.90
8824;DHT22;4448;50.904;4.694;2023-03-23T01:37:30;12.90;99.90
8824;DHT22;4448;50.904;4.694;2023-03-23T01:39:56;12.90;99.90
8824;DHT22;4448;50.904;4.694;2023-03-23T01:42:30;12.90;99.90
8824;DHT22;4448;50.904;4.694;2023-03-23T01:45:29;12.90;99.90
8824;DHT22;4448;50.904;4.694;2023-03-23T01:48:18;12.90;99.90
8824;DHT22;4448;50.904;4.694;2023-03-23T01:53:21;12.90;99.90
8824;DHT22;4448;50.904;4.694;2023-03-23T01:55:49;13.00;99.90
8824;DHT22;4448;50.904;4.694;2023-03-23T01:58:19;12.90;99.90
8824;DHT22;4448;50.904;4.694;2023-03-23T02:00:46;12.90;99.90
8824;DHT22;4448;50.904;4.694;2023-03-23T02:03:14;12.90;99.90
8824;DHT22;4448;50.904;4.694;2023-03-23T02:05:42;12.90;99.90
8824;DHT22;4448;50.904;4.694;2023-03-23T02:08:09;12.90;99.90
8824;DHT22;4448;50.904;4.694;2023-03-23T02:10:37;12.90;99.90
8824;DHT22;4448;50.904;4.694;2023-03-23T02:13:05;12.90;99.90
8824;DHT22;4448;50.904;4.694;2023-03-23T02:16:02;12.90;99.90
8824;DHT22;4448;50.904;4.694;2023-03-23T02:26:58;12.90;99.90
8824;DHT22;4448;50.904;4.694;2023-03-23T02:35:01;12.90;99.90
8824;DHT22;4448;50.904;4.694;2023-03-23T02:37:32;12.90;99.90
8824;DHT22;4448;50.904;4.694;2023-03-23T02:40:15;12.90;99.90
8824;DHT22;4448;50.904;4.694;2023-03-23T02:42:45;12.90;99.90
8824;DHT22;4448;50.904;4.694;2023-03-23T02:45:14;12.90;99.90
8824;DHT22;4448;50.904;4.694;2023-03-23T02:47:41;12.90;99.90
8824;DHT22;4448;50.904;4.694;2023-03-23T02:50:10;12.90;99.90
8824;DHT22;4448;50.904;4.694;2023-03-23T02:52:40;12.90;99.90
8824;DHT22;4448;50.904;4.694;2023-03-23T02:55:07;12.90;99.90
8824;DHT22;4448;50.904;4.694;2023-03-23T02:57:34;12.90;99.90
8824;DHT22;4448;50.904;4.694;2023-03-23T03:00:04;12.90;99.90
8824;DHT22;4448;50.904;4.694;2023-03-23T03:02:35;12.90;99.90
8824;DHT22;4448;50.904;4.694;2023-03-23T03:07:52;12.90;99.90
8824;DHT22;4448;50.904;4.694;2023-03-23T03:10:48;12.90;99.90
8824;DHT22;4448;50.904;4.694;2023-03-23T03:19:01;12.90;99.90
8824;DHT22;4448;50.904;4.694;2023-03-23T03:21:30;12.90;99.90
8824;DHT22;4448;50.904;4.694;2023-03-23T03:23:58;12.90;99.90
8824;DHT22;4448;50.904;4.694;2023-03-23T03:26:27;12.80;99.90
8824;DHT22;4448;50.904;4.694;2023-03-23T03:28:54;12.90;99.90
8824;DHT22;4448;50.904;4.694;2023-03-23T03:31:43;12.80;99.90
8824;DHT22;4448;50.904;4.694;2023-03-23T03:34:11;12.80;99.90
8824;DHT22;4448;50.904;4.694;2023-03-23T03:36:37;12.80;99.90
8824;DHT22;4448;50.904;4.694;2023-03-23T03:39:06;12.80;99.90
8824;DHT22;4448;50.904;4.694;2023-03-23T03:41:37;12.80;99.90
8824;DHT22;4448;50.904;4.694;2023-03-23T03:44:07;12.80;99.90
8824;DHT22;4448;50.904;4.694;2023-03-23T03:46:34;12.80;99.90
8824;DHT22;4448;50.904;4.694;2023-03-23T03:49:01;12.80;99.90
8824;DHT22;4448;50.904;4.694;2023-03-23T03:51:28;12.80;99.90
8824;DHT22;4448;50.904;4.694;2023-03-23T03:53:54;12.80;99.90
8824;DHT22;4448;50.904;4.694;2023-03-23T03:56:21;12.80;99.90
8824;DHT22;4448;50.904;4.694;2023-03-23T03:58:48;12.80;99.90
8824;DHT22;4448;50.904;4.694;2023-03-23T04:01:16;12.80;99.90
8824;DHT22;4448;50.904;4.694;2023-03-23T04:03:42;12.80;99.90
8824;DHT22;4448;50.904;4.694;2023-03-23T04:06:08;12.80;99.90
8824;DHT22;4448;50.904;4.694;2023-03-23T04:08:35;12.80;99.90
8824;DHT22;4448;50.904;4.694;2023-03-23T04:11:03;12.80;99.90
8824;DHT22;4448;50.904;4.694;2023-03-23T04:13:29;12.80;99.90
8824;DHT22;4448;50.904;4.694;2023-03-23T04:15:55;12.80;99.90
8824;DHT22;4448;50.904;4.694;2023-03-23T04:18:21;12.80;99.90
8824;DHT22;4448;50.904;4.694;2023-03-23T04:20:48;12.80;99.90
8824;DHT22;4448;50.904;4.694;2023-03-23T04:23:16;12.80;99.90
8824;DHT22;4448;50.904;4.694;2023-03-23T04:25:51;12.80;99.90
8824;DHT22;4448;50.904;4.694;2023-03-23T04:28:19;12.80;99.90
8824;DHT22;4448;50.904;4.694;2023-03-23T04:30:49;12.80;99.90
8824;DHT22;4448;50.904;4.694;2023-03-23T04:33:18;12.80;99.90
8824;DHT22;4448;50.904;4.694;2023-03-23T04:35:44;12.80;99.90
8824;DHT22;4448;50.904;4.694;2023-03-23T04:38:12;12.80;99.90
8824;DHT22;4448;50.904;4.694;2023-03-23T04:40:40;12.80;99.90
8824;DHT22;4448;50.904;4.694;2023-03-23T04:43:06;12.80;99.90
8824;DHT22;4448;50.904;4.694;2023-03-23T04:45:33;12.80;99.90
8824;DHT22;4448;50.904;4.694;2023-03-23T04:47:59;12.80;99.90
8824;DHT22;4448;50.904;4.694;2023-03-23T04:50:30;12.80;99.90
8824;DHT22;4448;50.904;4.694;2023-03-23T04:52:59;12.80;99.90
8824;DHT22;4448;50.904;4.694;2023-03-23T04:55:30;12.80;99.90
8824;DHT22;4448;50.904;4.694;2023-03-23T04:57:56;12.80;99.90
8824;DHT22;4448;50.904;4.694;2023-03-23T05:00:21;12.80;99.90
8824;DHT22;4448;50.904;4.694;2023-03-23T05:02:47;12.80;99.90
8824;DHT22;4448;50.904;4.694;2023-03-23T05:05:17;12.80;99.90
8824;DHT22;4448;50.904;4.694;2023-03-23T05:07:43;12.80;99.90
8824;DHT22;4448;50.904;4.694;2023-03-23T05:10:11;12.80;99.90
8824;DHT22;4448;50.904;4.694;2023-03-23T05:12:37;12.80;99.90
8824;DHT22;4448;50.904;4.694;2023-03-23T05:15:04;12.80;99.90
8824;DHT22;4448;50.904;4.694;2023-03-23T05:17:31;12.80;99.90
8824;DHT22;4448;50.904;4.694;2023-03-23T05:19:57;12.80;99.90
8824;DHT22;4448;50.904;4.694;2023-03-23T05:22:25;12.80;99.90
8824;DHT22;4448;50.904;4.694;2023-03-23T05:24:51;12.80;99.90
8824;DHT22;4448;50.904;4.694;2023-03-23T05:27:18;12.70;99.90
8824;DHT22;4448;50.904;4.694;2023-03-23T05:29:45;12.70;99.90
8824;DHT22;4448;50.904;4.694;2023-03-23T05:32:15;12.70;99.90
8824;DHT22;4448;50.904;4.694;2023-03-23T05:34:42;12.70;99.90
8824;DHT22;4448;50.904;4.694;2023-03-23T05:37:08;12.70;99.90
8824;DHT22;4448;50.904;4.694;2023-03-23T05:39:35;12.70;99.90
8824;DHT22;4448;50.904;4.694;2023-03-23T05:42:01;12.70;99.90
8824;DHT22;4448;50.904;4.694;2023-03-23T05:44:27;12.70;99.90
8824;DHT22;4448;50.904;4.694;2023-03-23T05:46:52;12.70;99.90
8824;DHT22;4448;50.904;4.694;2023-03-23T05:49:18;12.70;99.90
8824;DHT22;4448;50.904;4.694;2023-03-23T05:51:45;12.70;99.90
8824;DHT22;4448;50.904;4.694;2023-03-23T05:54:15;12.70;99.90
8824;DHT22;4448;50.904;4.694;2023-03-23T05:56:41;12.70;99.90
8824;DHT22;4448;50.904;4.694;2023-03-23T05:59:08;12.60;99.90
8824;DHT22;4448;50.904;4.694;2023-03-23T06:01:35;12.60;99.90
8824;DHT22;4448;50.904;4.694;2023-03-23T06:04:01;12.60;99.90
8824;DHT22;4448;50.904;4.694;2023-03-23T06:06:28;12.70;99.90
8824;DHT22;4448;50.904;4.694;2023-03-23T06:08:58;12.60;99.90
8824;DHT22;4448;50.904;4.694;2023-03-23T06:11:24;12.60;99.90
8824;DHT22;4448;50.904;4.694;2023-03-23T06:13:52;12.60;99.90
8824;DHT22;4448;50.904;4.694;2023-03-23T06:16:18;12.60;99.90
8824;DHT22;4448;50.904;4.694;2023-03-23T06:18:44;12.70;99.90
8824;DHT22;4448;50.904;4.694;2023-03-23T06:21:10;12.60;99.90
8824;DHT22;4448;50.904;4.694;2023-03-23T06:23:37;12.60;99.90
8824;DHT22;4448;50.904;4.694;2023-03-23T06:26:07;12.60;99.90
8824;DHT22;4448;50.904;4.694;2023-03-23T06:28:34;12.70;99.90
8824;DHT22;4448;50.904;4.694;2023-03-23T06:31:04;12.60;99.90
8824;DHT22;4448;50.904;4.694;2023-03-23T06:33:38;12.70;99.90
8824;DHT22;4448;50.904;4.694;2023-03-23T06:36:04;12.70;99.90
8824;DHT22;4448;50.904;4.694;2023-03-23T06:38:30;12.70;99.90
8824;DHT22;4448;50.904;4.694;2023-03-23T06:40:57;12.70;99.90
8824;DHT22;4448;50.904;4.694;2023-03-23T06:43:23;12.70;99.90
8824;DHT22;4448;50.904;4.694;2023-03-23T06:45:50;12.70;99.90
8824;DHT22;4448;50.904;4.694;2023-03-23T06:48:16;12.70;99.90
8824;DHT22;4448;50.904;4.694;2023-03-23T06:50:43;12.70;99.90
8824;DHT22;4448;50.904;4.694;2023-03-23T06:53:10;12.70;99.90
8824;DHT22;4448;50.904;4.694;2023-03-23T06:55:36;12.70;99.90
8824;DHT22;4448;50.904;4.694;2023-03-23T06:58:04;12.70;99.90
8824;DHT22;4448;50.904;4.694;2023-03-23T07:00:31;12.70;99.90
8824;DHT22;4448;50.904;4.694;2023-03-23T07:02:57;12.70;99.90
8824;DHT22;4448;50.904;4.694;2023-03-23T07:05:23;12.70;99.90
8824;DHT22;4448;50.904;4.694;2023-03-23T07:07:50;12.70;99.90
8824;DHT22;4448;50.904;4.694;2023-03-23T07:10:16;12.70;99.90
8824;DHT22;4448;50.904;4.694;2023-03-23T07:12:42;12.70;99.90
8824;DHT22;4448;50.904;4.694;2023-03-23T07:15:08;12.70;99.90
8824;DHT22;4448;50.904;4.694;2023-03-23T07:17:37;12.70;99.90
8824;DHT22;4448;50.904;4.694;2023-03-23T07:20:04;12.70;99.90
8824;DHT22;4448;50.904;4.694;2023-03-23T07:22:30;12.70;99.90
8824;DHT22;4448;50.904;4.694;2023-03-23T07:24:56;12.60;99.90
8824;DHT22;4448;50.904;4.694;2023-03-23T07:27:22;12.60;99.90
8824;DHT22;4448;50.904;4.694;2023-03-23T07:29:48;12.60;99.90
8824;DHT22;4448;50.904;4.694;2023-03-23T07:32:14;12.60;99.90
8824;DHT22;4448;50.904;4.694;2023-03-23T07:34:40;12.60;99.90
8824;DHT22;4448;50.904;4.694;2023-03-23T07:37:07;12.50;99.90
8824;DHT22;4448;50.904;4.694;2023-03-23T07:39:33;12.50;99.90
8824;DHT22;4448;50.904;4.694;2023-03-23T07:41:59;12.40;99.90
8824;DHT22;4448;50.904;4.694;2023-03-23T07:44:25;12.40;99.90
8824;DHT22;4448;50.904;4.694;2023-03-23T07:46:51;12.40;99.90
8824;DHT22;4448;50.904;4.694;2023-03-23T07:49:18;12.40;99.90
8824;DHT22;4448;50.904;4.694;2023-03-23T07:51:45;12.30;99.90
8824;DHT22;4448;50.904;4.694;2023-03-23T07:54:10;12.30;99.90
8824;DHT22;4448;50.904;4.694;2023-03-23T07:56:37;12.20;99.90
8824;DHT22;4448;50.904;4.694;2023-03-23T07:59:06;12.20;99.90
8824;DHT22;4448;50.904;4.694;2023-03-23T08:01:32;12.20;99.90
8824;DHT22;4448;50.904;4.694;2023-03-23T08:03:57;12.20;99.90
8824;DHT22;4448;50.904;4.694;2023-03-23T08:06:25;12.20;99.90
8824;DHT22;4448;50.904;4.694;2023-03-23T08:08:50;12.10;99.90
8824;DHT22;4448;50.904;4.694;2023-03-23T08:11:17;12.10;99.90
8824;DHT22;4448;50.904;4.694;2023-03-23T08:13:44;12.10;99.90
8824;DHT22;4448;50.904;4.694;2023-03-23T08:16:10;12.10;99.90
8824;DHT22;4448;50.904;4.694;2023-03-23T08:18:37;12.10;99.90
8824;DHT22;4448;50.904;4.694;2023-03-23T08:21:05;12.10;99.90
8824;DHT22;4448;50.904;4.694;2023-03-23T08:23:32;12.10;99.90
8824;DHT22;4448;50.904;4.694;2023-03-23T08:25:58;12.10;99.90
8824;DHT22;4448;50.904;4.694;2023-03-23T08:28:24;12.10;99.90
8824;DHT22;4448;50.904;4.694;2023-03-23T08:33:16;12.10;99.90
8824;DHT22;4448;50.904;4.694;2023-03-23T08:35:42;12.10;99.90
8824;DHT22;4448;50.904;4.694;2023-03-23T08:38:10;12.10;99.90
8824;DHT22;4448;50.904;4.694;2023-03-23T08:40:37;12.20;99.90
8824;DHT22;4448;50.904;4.694;2023-03-23T08:43:04;12.20;99.90
8824;DHT22;4448;50.904;4.694;2023-03-23T08:45:30;12.20;99.90
8824;DHT22;4448;50.904;4.694;2023-03-23T08:47:56;12.20;99.90
8824;DHT22;4448;50.904;4.694;2023-03-23T08:50:27;12.10;99.90
8824;DHT22;4448;50.904;4.694;2023-03-23T08:52:53;12.10;99.90
8824;DHT22;4448;50.904;4.694;2023-03-23T08:55:20;12.10;99.90
8824;DHT22;4448;50.904;4.694;2023-03-23T08:57:46;12.10;99.90
8824;DHT22;4448;50.904;4.694;2023-03-23T09:00:18;12.10;99.90
8824;DHT22;4448;50.904;4.694;2023-03-23T09:02:49;12.10;99.90
8824;DHT22;4448;50.904;4.694;2023-03-23T09:05:17;12.10;99.90
8824;DHT22;4448;50.904;4.694;2023-03-23T09:07:45;12.10;99.90
8824;DHT22;4448;50.904;4.694;2023-03-23T09:10:12;12.10;99.90
8824;DHT22;4448;50.904;4.694;2023-03-23T09:12:38;12.10;99.90
8824;DHT22;4448;50.904;4.694;2023-03-23T09:15:06;12.10;99.90
8824;DHT22;4448;50.904;4.694;2023-03-23T09:17:34;12.10;99.90
8824;DHT22;4448;50.904;4.694;2023-03-23T09:20:00;12.10;99.90
8824;DHT22;4448;50.904;4.694;2023-03-23T09:22:26;12.10;99.90
8824;DHT22;4448;50.904;4.694;2023-03-23T09:24:53;12.10;99.90
8824;DHT22;4448;50.904;4.694;2023-03-23T09:27:18;12.10;99.90
8824;DHT22;4448;50.904;4.694;2023-03-23T09:29:44;12.00;99.90
8824;DHT22;4448;50.904;4.694;2023-03-23T09:32:10;12.00;99.90
8824;DHT22;4448;50.904;4.694;2023-03-23T09:34:39;12.10;99.90
8824;DHT22;4448;50.904;4.694;2023-03-23T09:37:05;12.00;99.90
8824;DHT22;4448;50.904;4.694;2023-03-23T09:39:31;12.00;99.90
8824;DHT22;4448;50.904;4.694;2023-03-23T09:42:22;12.00;99.90
8824;DHT22;4448;50.904;4.694;2023-03-23T09:45:11;12.10;99.90
8824;DHT22;4448;50.904;4.694;2023-03-23T09:50:33;12.10;99.90
8824;DHT22;4448;50.904;4.694;2023-03-23T09:53:23;12.10;99.90
8824;DHT22;4448;50.904;4.694;2023-03-23T09:55:50;12.20;99.90
8824;DHT22;4448;50.904;4.694;2023-03-23T09:58:36;12.20;99.90
8824;DHT22;4448;50.904;4.694;2023-03-23T10:01:08;12.20;99.90
8824;DHT22;4448;50.904;4.694;2023-03-23T10:03:39;12.30;99.90
8824;DHT22;4448;50.904;4.694;2023-03-23T10:06:10;12.40;99.90
8824;DHT22;4448;50.904;4.694;2023-03-23T10:08:39;12.50;99.90
8824;DHT22;4448;50.904;4.694;2023-03-23T10:19:27;12.80;99.90
8824;DHT22;4448;50.904;4.694;2023-03-23T10:21:59;12.80;99.90
8824;DHT22;4448;50.904;4.694;2023-03-23T10:24:50;12.90;99.90
8824;DHT22;4448;50.904;4.694;2023-03-23T10:29:52;13.00;99.90
8824;DHT22;4448;50.904;4.694;2023-03-23T10:32:40;13.00;99.90
8824;DHT22;4448;50.904;4.694;2023-03-23T10:35:11;13.00;99.90
8824;DHT22;4448;50.904;4.694;2023-03-23T10:37:44;13.10;99.90
8824;DHT22;4448;50.904;4.694;2023-03-23T10:40:16;13.10;99.90
8824;DHT22;4448;50.904;4.694;2023-03-23T10:42:43;13.20;99.90
8824;DHT22;4448;50.904;4.694;2023-03-23T10:47:46;13.40;99.90
8824;DHT22;4448;50.904;4.694;2023-03-23T10:50:17;13.40;99.90
8824;DHT22;4448;50.904;4.694;2023-03-23T10:52:44;13.50;99.90
8824;DHT22;4448;50.904;4.694;2023-03-23T10:55:11;13.60;99.90
8824;DHT22;4448;50.904;4.694;2023-03-23T10:57:39;13.60;99.90
8824;DHT22;4448;50.904;4.694;2023-03-23T11:05:38;13.90;99.90
8824;DHT22;4448;50.904;4.694;2023-03-23T11:08:11;14.00;99.90
8824;DHT22;4448;50.904;4.694;2023-03-23T11:10:41;14.10;99.90
8824;DHT22;4448;50.904;4.694;2023-03-23T11:13:15;14.20;99.90
8824;DHT22;4448;50.904;4.694;2023-03-23T11:15:43;14.20;99.90
8824;DHT22;4448;50.904;4.694;2023-03-23T11:20:48;14.30;99.90
8824;DHT22;4448;50.904;4.694;2023-03-23T11:23:26;14.30;99.90
8824;DHT22;4448;50.904;4.694;2023-03-23T11:28:28;14.30;99.90
8824;DHT22;4448;50.904;4.694;2023-03-23T11:30:55;14.30;99.90
8824;DHT22;4448;50.904;4.694;2023-03-23T11:33:23;14.30;99.90
8824;DHT22;4448;50.904;4.694;2023-03-23T11:35:52;14.40;99.90
8824;DHT22;4448;50.904;4.694;2023-03-23T11:38:20;14.40;99.90
8824;DHT22;4448;50.904;4.694;2023-03-23T11:40:51;14.40;99.90
8824;DHT22;4448;50.904;4.694;2023-03-23T11:43:21;14.50;99.90
8824;DHT22;4448;50.904;4.694;2023-03-23T11:46:13;14.50;99.90
8824;DHT22;4448;50.904;4.694;2023-03-23T11:49:01;14.60;99.90
8824;DHT22;4448;50.904;4.694;2023-03-23T11:54:43;14.80;99.90
8824;DHT22;4448;50.904;4.694;2023-03-23T11:57:12;14.80;99.90
8824;DHT22;4448;50.904;4.694;2023-03-23T11:59:39;14.90;99.90
8824;DHT22;4448;50.904;4.694;2023-03-23T12:05:34;15.00;99.90
8824;DHT22;4448;50.904;4.694;2023-03-23T12:13:26;15.30;99.90
8824;DHT22;4448;50.904;4.694;2023-03-23T12:16:23;15.30;99.90
8824;DHT22;4448;50.904;4.694;2023-03-23T12:34:45;15.30;99.90
8824;DHT22;4448;50.904;4.694;2023-03-23T12:48:13;15.50;99.90
8824;DHT22;4448;50.904;4.694;2023-03-23T12:51:07;15.50;99.90
8824;DHT22;4448;50.904;4.694;2023-03-23T12:59:29;15.50;99.90
8824;DHT22;4448;50.904;4.694;2023-03-23T13:01:51;15.50;99.90
8824;DHT22;4448;50.904;4.694;2023-03-23T13:04:28;15.50;99.90
8824;DHT22;4448;50.904;4.694;2023-03-23T13:06:55;15.50;99.90
8824;DHT22;4448;50.904;4.694;2023-03-23T13:11:49;15.50;99.90
8824;DHT22;4448;50.904;4.694;2023-03-23T13:22:09;15.40;99.90
8824;DHT22;4448;50.904;4.694;2023-03-23T13:24:57;15.50;99.90
8824;DHT22;4448;50.904;4.694;2023-03-23T13:27:26;15.60;99.90
8824;DHT22;4448;50.904;4.694;2023-03-23T13:29:54;15.80;99.90
8824;DHT22;4448;50.904;4.694;2023-03-23T13:32:21;15.90;99.90
8824;DHT22;4448;50.904;4.694;2023-03-23T13:34:54;16.00;99.90
8824;DHT22;4448;50.904;4.694;2023-03-23T13:37:23;16.10;99.90
8824;DHT22;4448;50.904;4.694;2023-03-23T13:42:29;16.20;99.90
8824;DHT22;4448;50.904;4.694;2023-03-23T13:45:19;16.30;99.90
8824;DHT22;4448;50.904;4.694;2023-03-23T13:47:46;16.30;99.90
8824;DHT22;4448;50.904;4.694;2023-03-23T13:52:54;16.50;99.90
8824;DHT22;4448;50.904;4.694;2023-03-23T13:58:08;16.60;99.90
8824;DHT22;4448;50.904;4.694;2023-03-23T14:00:47;16.50;99.90
8824;DHT22;4448;50.904;4.694;2023-03-23T14:03:24;16.50;99.90
8824;DHT22;4448;50.904;4.694;2023-03-23T14:05:59;16.40;99.90
8824;DHT22;4448;50.904;4.694;2023-03-23T14:11:09;16.30;99.90
8824;DHT22;4448;50.904;4.694;2023-03-23T14:13:44;16.20;99.90
8824;DHT22;4448;50.904;4.694;2023-03-23T14:16:38;16.10;99.90
8824;DHT22;4448;50.904;4.694;2023-03-23T14:19:17;16.00;99.90
8824;DHT22;4448;50.904;4.694;2023-03-23T14:21:53;15.90;99.90
8824;DHT22;4448;50.904;4.694;2023-03-23T14:24:28;15.80;99.90
8824;DHT22;4448;50.904;4.694;2023-03-23T14:27:14;15.70;99.90
8824;DHT22;4448;50.904;4.694;2023-03-23T14:29:41;15.60;99.90
8824;DHT22;4448;50.904;4.694;2023-03-23T14:32:18;15.50;99.90
8824;DHT22;4448;50.904;4.694;2023-03-23T14:34:47;15.40;99.90
8824;DHT22;4448;50.904;4.694;2023-03-23T14:37:14;15.30;99.90
8824;DHT22;4448;50.904;4.694;2023-03-23T14:39:45;15.20;99.90
8824;DHT22;4448;50.904;4.694;2023-03-23T14:42:14;15.10;99.90
8824;DHT22;4448;50.904;4.694;2023-03-23T14:44:46;15.00;99.90
8824;DHT22;4448;50.904;4.694;2023-03-23T14:47:20;14.90;99.90
8824;DHT22;4448;50.904;4.694;2023-03-23T14:49:47;14.90;99.90
8824;DHT22;4448;50.904;4.694;2023-03-23T14:52:15;14.90;99.90
8824;DHT22;4448;50.904;4.694;2023-03-23T14:54:43;14.80;99.90
8824;DHT22;4448;50.904;4.694;2023-03-23T14:57:18;14.80;99.90
8824;DHT22;4448;50.904;4.694;2023-03-23T14:59:48;14.90;99.90
8824;DHT22;4448;50.904;4.694;2023-03-23T15:04:45;14.90;99.90
8824;DHT22;4448;50.904;4.694;2023-03-23T15:07:14;14.80;99.90
8824;DHT22;4448;50.904;4.694;2023-03-23T15:09:43;14.70;99.90
8824;DHT22;4448;50.904;4.694;2023-03-23T15:12:22;14.70;99.90
8824;DHT22;4448;50.904;4.694;2023-03-23T15:14:52;14.70;99.90
8824;DHT22;4448;50.904;4.694;2023-03-23T15:17:24;14.60;99.90
8824;DHT22;4448;50.904;4.694;2023-03-23T15:19:51;14.60;99.90
8824;DHT22;4448;50.904;4.694;2023-03-23T15:22:27;14.60;99.90
8824;DHT22;4448;50.904;4.694;2023-03-23T15:25:16;14.60;99.90
8824;DHT22;4448;50.904;4.694;2023-03-23T15:27:48;14.60;99.90
8824;DHT22;4448;50.904;4.694;2023-03-23T15:33:04;14.60;99.90
8824;DHT22;4448;50.904;4.694;2023-03-23T15:35:45;14.60;99.90
8824;DHT22;4448;50.904;4.694;2023-03-23T15:38:21;14.60;99.90
8824;DHT22;4448;50.904;4.694;2023-03-23T15:40:54;14.60;99.90
8824;DHT22;4448;50.904;4.694;2023-03-23T15:43:35;14.60;99.90
8824;DHT22;4448;50.904;4.694;2023-03-23T15:48:51;14.70;99.90
8824;DHT22;4448;50.904;4.694;2023-03-23T15:51:20;14.70;99.90
8824;DHT22;4448;50.904;4.694;2023-03-23T15:53:47;14.70;99.90
8824;DHT22;4448;50.904;4.694;2023-03-23T15:56:14;14.70;99.90
8824;DHT22;4448;50.904;4.694;2023-03-23T15:58:39;14.70;99.90
8824;DHT22;4448;50.904;4.694;2023-03-23T16:01:26;14.70;99.90
8824;DHT22;4448;50.904;4.694;2023-03-23T16:04:11;14.70;99.90
8824;DHT22;4448;50.904;4.694;2023-03-23T16:06:38;14.70;99.90
8824;DHT22;4448;50.904;4.694;2023-03-23T16:09:05;14.70;99.90
8824;DHT22;4448;50.904;4.694;2023-03-23T16:11:32;14.70;99.90
8824;DHT22;4448;50.904;4.694;2023-03-23T16:13:58;14.70;99.90
8824;DHT22;4448;50.904;4.694;2023-03-23T16:16:35;14.70;99.90
8824;DHT22;4448;50.904;4.694;2023-03-23T16:19:02;14.60;99.90
8824;DHT22;4448;50.904;4.694;2023-03-23T16:21:28;14.60;99.90
8824;DHT22;4448;50.904;4.694;2023-03-23T16:23:54;14.60;99.90
8824;DHT22;4448;50.904;4.694;2023-03-23T16:26:20;14.60;99.90
8824;DHT22;4448;50.904;4.694;2023-03-23T16:28:46;14.60;99.90
8824;DHT22;4448;50.904;4.694;2023-03-23T16:31:15;14.60;99.90
8824;DHT22;4448;50.904;4.694;2023-03-23T16:33:41;14.60;99.90
8824;DHT22;4448;50.904;4.694;2023-03-23T16:36:12;14.60;99.90
8824;DHT22;4448;50.904;4.694;2023-03-23T16:38:48;14.70;99.90
8824;DHT22;4448;50.904;4.694;2023-03-23T16:41:15;14.70;99.90
8824;DHT22;4448;50.904;4.694;2023-03-23T16:43:41;14.70;99.90
8824;DHT22;4448;50.904;4.694;2023-03-23T16:46:10;15.20;99.90
8824;DHT22;4448;50.904;4.694;2023-03-23T16:48:36;14.70;99.90
8824;DHT22;4448;50.904;4.694;2023-03-23T16:51:02;14.70;99.90
8824;DHT22;4448;50.904;4.694;2023-03-23T16:53:28;14.70;99.90
8824;DHT22;4448;50.904;4.694;2023-03-23T16:55:54;14.80;99.90
8824;DHT22;4448;50.904;4.694;2023-03-23T16:58:21;14.80;99.90
8824;DHT22;4448;50.904;4.694;2023-03-23T17:00:49;14.70;99.90
8824;DHT22;4448;50.904;4.694;2023-03-23T17:03:19;14.80;99.90
8824;DHT22;4448;50.904;4.694;2023-03-23T17:05:47;14.70;99.90
8824;DHT22;4448;50.904;4.694;2023-03-23T17:08:13;14.70;99.90
8824;DHT22;4448;50.904;4.694;2023-03-23T17:10:40;14.70;99.90
8824;DHT22;4448;50.904;4.694;2023-03-23T17:13:07;14.70;99.90
8824;DHT22;4448;50.904;4.694;2023-03-23T17:15:39;14.70;99.90
8824;DHT22;4448;50.904;4.694;2023-03-23T17:18:06;14.60;99.90
8824;DHT22;4448;50.904;4.694;2023-03-23T17:20:32;14.60;99.90
8824;DHT22;4448;50.904;4.694;2023-03-23T17:22:58;14.60;99.90
8824;DHT22;4448;50.904;4.694;2023-03-23T17:25:26;14.60;99.90
8824;DHT22;4448;50.904;4.694;2023-03-23T17:27:51;14.60;99.90
8824;DHT22;4448;50.904;4.694;2023-03-23T17:30:17;14.60;99.90
8824;DHT22;4448;50.904;4.694;2023-03-23T17:32:43;14.50;99.90
8824;DHT22;4448;50.904;4.694;2023-03-23T17:35:11;14.50;99.90
8824;DHT22;4448;50.904;4.694;2023-03-23T17:37:37;14.50;99.90
8824;DHT22;4448;50.904;4.694;2023-03-23T17:40:06;14.50;99.90
8824;DHT22;4448;50.904;4.694;2023-03-23T17:42:35;14.50;99.90
8824;DHT22;4448;50.904;4.694;2023-03-23T17:45:04;14.50;99.90
8824;DHT22;4448;50.904;4.694;2023-03-23T17:47:31;14.50;99.90
8824;DHT22;4448;50.904;4.694;2023-03-23T17:49:57;14.50;99.90
8824;DHT22;4448;50.904;4.694;2023-03-23T17:52:23;14.50;99.90
8824;DHT22;4448;50.904;4.694;2023-03-23T17:54:48;14.50;99.90
8824;DHT22;4448;50.904;4.694;2023-03-23T17:57:14;14.50;99.90
8824;DHT22;4448;50.904;4.694;2023-03-23T17:59:40;14.40;99.90
8824;DHT22;4448;50.904;4.694;2023-03-23T18:02:06;14.40;99.90
8824;DHT22;4448;50.904;4.694;2023-03-23T18:04:32;14.40;99.90
8824;DHT22;4448;50.904;4.694;2023-03-23T18:06:58;14.40;99.90
8824;DHT22;4448;50.904;4.694;2023-03-23T18:09:25;14.40;99.90
8824;DHT22;4448;50.904;4.694;2023-03-23T18:11:51;14.40;99.90
8824;DHT22;4448;50.904;4.694;2023-03-23T18:14:18;14.40;99.90
8824;DHT22;4448;50.904;4.694;2023-03-23T18:16:44;14.40;99.90
8824;DHT22;4448;50.904;4.694;2023-03-23T18:19:10;14.40;99.90
8824;DHT22;4448;50.904;4.694;2023-03-23T18:21:36;14.40;99.90
8824;DHT22;4448;50.904;4.694;2023-03-23T18:24:01;14.40;99.90
8824;DHT22;4448;50.904;4.694;2023-03-23T18:26:28;14.40;99.90